createdAt,value
2022-10-22T00:00:37.432Z,14.52
2022-10-22T00:01:37.358Z,14.61
2022-10-22T00:02:37.383Z,14.64
2022-10-22T00:03:37.200Z,14.61
2022-10-22T00:04:37.140Z,14.61
2022-10-22T00:05:37.042Z,14.59
2022-10-22T00:06:36.960Z,14.61
2022-10-22T00:07:36.891Z,14.61
2022-10-22T00:08:36.871Z,14.67
2022-10-22T00:09:36.725Z,14.61
2022-10-22T00:10:36.644Z,14.57
2022-10-22T00:11:36.566Z,14.61
2022-10-22T00:12:36.493Z,14.64
2022-10-22T00:13:36.470Z,14.69
2022-10-22T00:14:36.331Z,14.74
2022-10-22T00:15:36.254Z,14.79
2022-10-22T00:16:36.175Z,14.75
2022-10-22T00:17:36.103Z,14.74
2022-10-22T00:18:36.045Z,14.72
2022-10-22T00:19:35.942Z,14.75
2022-10-22T00:20:35.861Z,14.68
2022-10-22T00:21:35.782Z,14.69
2022-10-22T00:22:35.709Z,14.78
2022-10-22T00:23:35.630Z,14.84
2022-10-22T00:24:35.549Z,14.75
2022-10-22T00:25:35.475Z,14.74
2022-10-22T00:26:35.396Z,14.87
2022-10-22T00:27:35.315Z,14.78
2022-10-22T00:28:35.236Z,14.87
2022-10-22T00:29:35.159Z,14.78
2022-10-22T00:30:35.080Z,14.83
2022-10-22T00:31:35.001Z,14.85
2022-10-22T00:32:34.930Z,14.83
2022-10-22T00:33:34.842Z,14.84
2022-10-22T00:34:34.764Z,14.85
2022-10-22T00:35:34.690Z,14.71
2022-10-22T00:36:34.609Z,14.74
2022-10-22T00:37:34.533Z,14.75
2022-10-22T00:38:34.453Z,14.75
2022-10-22T00:39:34.374Z,14.75
2022-10-22T00:40:34.300Z,14.71
2022-10-22T00:41:34.220Z,14.69
2022-10-22T00:42:34.141Z,14.84
2022-10-22T00:43:34.065Z,14.85
2022-10-22T00:44:33.982Z,14.80
2022-10-22T00:45:33.911Z,14.85
2022-10-22T00:46:33.833Z,14.94
2022-10-22T00:47:33.749Z,14.78
2022-10-22T00:48:33.675Z,14.80
2022-10-22T00:49:33.589Z,14.85
2022-10-22T00:50:33.515Z,14.84
2022-10-22T00:51:33.435Z,14.79
2022-10-22T00:52:33.359Z,14.79
2022-10-22T00:53:33.285Z,14.80
2022-10-22T00:54:33.203Z,14.88
2022-10-22T00:55:33.119Z,14.87
2022-10-22T00:56:33.045Z,14.84
2022-10-22T00:57:32.967Z,14.80
2022-10-22T00:58:32.893Z,14.87
2022-10-22T00:59:32.811Z,14.94
2022-10-22T01:00:32.798Z,14.94
2022-10-22T01:01:32.653Z,14.90
2022-10-22T01:02:32.574Z,14.98
2022-10-22T01:03:32.495Z,14.93
2022-10-22T01:04:32.425Z,15.09
2022-10-22T01:05:32.340Z,14.98
2022-10-22T01:06:32.270Z,15.05
2022-10-22T01:07:32.188Z,14.97
2022-10-22T01:08:32.158Z,15.02
2022-10-22T01:09:32.028Z,15.02
2022-10-22T01:10:31.954Z,15.02
2022-10-22T01:11:31.867Z,14.97
2022-10-22T01:12:31.791Z,15.03
2022-10-22T01:13:31.719Z,14.98
2022-10-22T01:14:31.634Z,14.95
2022-10-22T01:15:31.556Z,15.05
2022-10-22T01:16:31.482Z,15.01
2022-10-22T01:17:31.402Z,15.06
2022-10-22T01:18:31.321Z,15.05
2022-10-22T01:19:31.242Z,15.06
2022-10-22T01:20:31.164Z,14.98
2022-10-22T01:21:31.085Z,14.95
2022-10-22T01:22:31.014Z,15.02
2022-10-22T01:23:30.941Z,15.02
2022-10-22T01:24:30.855Z,15.05
2022-10-22T01:25:30.776Z,15.03
2022-10-22T01:26:30.698Z,14.94
2022-10-22T01:27:30.618Z,15.06
2022-10-22T01:28:30.543Z,15.05
2022-10-22T01:29:30.465Z,15.05
2022-10-22T01:30:30.386Z,15.09
2022-10-22T01:31:30.310Z,14.93
2022-10-22T01:32:30.234Z,14.91
2022-10-22T01:33:30.154Z,14.88
2022-10-22T01:34:30.077Z,14.90
2022-10-22T01:35:30.037Z,14.85
2022-10-22T01:36:29.914Z,14.91
2022-10-22T01:37:29.835Z,14.94
2022-10-22T01:38:29.761Z,14.88
2022-10-22T01:39:29.682Z,14.85
2022-10-22T01:40:29.608Z,14.94
2022-10-22T01:41:29.523Z,14.84
2022-10-22T01:42:29.448Z,14.90
2022-10-22T01:43:29.367Z,14.84
2022-10-22T01:44:29.364Z,14.90
2022-10-22T01:45:29.229Z,14.88
2022-10-22T01:46:29.139Z,14.88
2022-10-22T01:47:29.052Z,14.85
2022-10-22T01:48:28.978Z,14.85
2022-10-22T01:49:28.903Z,14.75
2022-10-22T01:50:28.822Z,14.84
2022-10-22T01:51:28.741Z,14.79
2022-10-22T01:52:28.670Z,14.85
2022-10-22T01:53:28.585Z,14.87
2022-10-22T01:54:28.517Z,14.85
2022-10-22T01:55:28.431Z,14.83
2022-10-22T01:56:28.356Z,14.79
2022-10-22T01:57:28.273Z,14.78
2022-10-22T01:58:28.196Z,14.80
2022-10-22T01:59:28.117Z,14.79
2022-10-22T02:00:28.071Z,14.84
2022-10-22T02:01:27.961Z,14.75
2022-10-22T02:02:27.886Z,14.85
2022-10-22T02:03:27.820Z,14.90
2022-10-22T02:04:27.725Z,14.84
2022-10-22T02:05:27.658Z,14.75
2022-10-22T02:06:27.577Z,14.83
2022-10-22T02:07:27.492Z,14.80
2022-10-22T02:08:27.413Z,14.75
2022-10-22T02:09:27.335Z,14.80
2022-10-22T02:10:27.257Z,14.88
2022-10-22T02:11:27.177Z,14.74
2022-10-22T02:12:27.105Z,14.67
2022-10-22T02:13:27.025Z,14.60
2022-10-22T02:14:26.945Z,14.61
2022-10-22T02:15:26.867Z,14.50
2022-10-22T02:16:26.790Z,14.54
2022-10-22T02:17:26.707Z,14.61
2022-10-22T02:18:26.633Z,14.56
2022-10-22T02:19:26.558Z,14.57
2022-10-22T02:20:26.473Z,14.50
2022-10-22T02:21:26.395Z,14.57
2022-10-22T02:22:26.319Z,14.56
2022-10-22T02:23:26.244Z,14.61
2022-10-22T02:24:26.161Z,14.61
2022-10-22T02:25:26.083Z,14.56
2022-10-22T02:26:26.007Z,14.60
2022-10-22T02:27:27.104Z,14.61
2022-10-22T02:28:25.847Z,14.49
2022-10-22T02:29:25.772Z,14.52
2022-10-22T02:30:25.696Z,14.44
2022-10-22T02:31:25.618Z,14.36
2022-10-22T02:32:25.537Z,14.41
2022-10-22T02:33:25.462Z,14.38
2022-10-22T02:34:25.382Z,14.38
2022-10-22T02:35:25.301Z,14.35
2022-10-22T02:36:25.223Z,14.36
2022-10-22T02:37:25.159Z,14.36
2022-10-22T02:38:25.066Z,14.35
2022-10-22T02:39:24.989Z,14.41
2022-10-22T02:40:24.915Z,14.38
2022-10-22T02:41:24.834Z,14.46
2022-10-22T02:42:24.756Z,14.44
2022-10-22T02:43:24.685Z,14.38
2022-10-22T02:44:24.596Z,14.44
2022-10-22T02:45:24.520Z,14.44
2022-10-22T02:46:24.443Z,14.46
2022-10-22T02:47:24.365Z,14.42
2022-10-22T02:48:24.286Z,14.47
2022-10-22T02:49:24.211Z,14.50
2022-10-22T02:50:24.139Z,14.50
2022-10-22T02:51:24.050Z,14.50
2022-10-22T02:52:23.974Z,14.41
2022-10-22T02:53:23.896Z,14.35
2022-10-22T02:54:23.814Z,14.47
2022-10-22T02:55:23.739Z,14.47
2022-10-22T02:56:23.657Z,14.52
2022-10-22T02:57:23.591Z,14.46
2022-10-22T02:58:23.500Z,14.47
2022-10-22T02:59:23.440Z,14.57
2022-10-22T03:00:23.352Z,14.57
2022-10-22T03:01:23.322Z,14.54
2022-10-22T03:02:23.191Z,14.54
2022-10-22T03:03:23.115Z,14.52
2022-10-22T03:04:23.036Z,14.50
2022-10-22T03:05:22.955Z,14.53
2022-10-22T03:06:22.990Z,14.52
2022-10-22T03:07:22.803Z,14.50
2022-10-22T03:08:22.721Z,14.54
2022-10-22T03:09:24.740Z,14.52
2022-10-22T03:10:22.565Z,14.47
2022-10-22T03:11:22.489Z,14.50
2022-10-22T03:12:22.408Z,14.44
2022-10-22T03:13:22.332Z,14.46
2022-10-22T03:14:22.249Z,14.42
2022-10-22T03:15:22.219Z,14.44
2022-10-22T03:16:22.129Z,14.36
2022-10-22T03:17:22.019Z,14.42
2022-10-22T03:18:21.936Z,14.42
2022-10-22T03:19:21.864Z,14.47
2022-10-22T03:20:21.782Z,14.49
2022-10-22T03:21:21.710Z,14.42
2022-10-22T03:22:21.625Z,14.41
2022-10-22T03:23:21.551Z,14.39
2022-10-22T03:24:21.467Z,14.34
2022-10-22T03:25:21.391Z,14.34
2022-10-22T03:26:21.313Z,14.36
2022-10-22T03:27:21.234Z,14.44
2022-10-22T03:28:21.164Z,14.35
2022-10-22T03:29:21.081Z,14.44
2022-10-22T03:30:21.000Z,14.44
2022-10-22T03:31:20.924Z,14.31
2022-10-22T03:32:20.845Z,14.44
2022-10-22T03:33:20.768Z,14.36
2022-10-22T03:34:20.686Z,14.38
2022-10-22T03:35:20.610Z,14.38
2022-10-22T03:36:20.532Z,14.36
2022-10-22T03:37:20.457Z,14.36
2022-10-22T03:38:20.372Z,14.38
2022-10-22T03:39:20.301Z,14.46
2022-10-22T03:40:20.213Z,14.36
2022-10-22T03:41:20.145Z,14.21
2022-10-22T03:42:20.062Z,14.27
2022-10-22T03:43:19.984Z,14.31
2022-10-22T03:44:19.904Z,14.29
2022-10-22T03:45:19.831Z,14.34
2022-10-22T03:46:19.748Z,14.31
2022-10-22T03:47:19.669Z,14.35
2022-10-22T03:48:19.594Z,14.24
2022-10-22T03:49:19.514Z,14.28
2022-10-22T03:50:19.441Z,14.32
2022-10-22T03:51:19.359Z,14.29
2022-10-22T03:52:19.277Z,14.28
2022-10-22T03:53:19.198Z,14.31
2022-10-22T03:54:19.120Z,14.35
2022-10-22T03:55:19.045Z,14.31
2022-10-22T03:56:18.970Z,14.24
2022-10-22T03:57:18.887Z,14.21
2022-10-22T03:58:18.805Z,14.32
2022-10-22T03:59:18.731Z,14.24
2022-10-22T04:00:18.650Z,14.38
2022-10-22T04:01:18.630Z,14.28
2022-10-22T04:02:18.495Z,14.35
2022-10-22T04:03:18.418Z,14.41
2022-10-22T04:04:18.337Z,14.31
2022-10-22T04:05:18.300Z,14.41
2022-10-22T04:06:18.178Z,14.38
2022-10-22T04:07:18.103Z,14.34
2022-10-22T04:08:18.025Z,14.35
2022-10-22T04:09:18.026Z,14.35
2022-10-22T04:10:17.869Z,14.41
2022-10-22T04:11:17.789Z,14.32
2022-10-22T04:12:17.710Z,14.32
2022-10-22T04:13:17.635Z,14.32
2022-10-22T04:14:17.554Z,14.23
2022-10-22T04:15:17.474Z,14.32
2022-10-22T04:16:17.396Z,14.23
2022-10-22T04:17:17.317Z,14.34
2022-10-22T04:18:17.239Z,14.36
2022-10-22T04:19:17.168Z,14.36
2022-10-22T04:20:17.085Z,14.24
2022-10-22T04:21:17.006Z,14.36
2022-10-22T04:22:16.930Z,14.38
2022-10-22T04:23:16.856Z,14.36
2022-10-22T04:24:16.770Z,14.31
2022-10-22T04:25:16.695Z,14.36
2022-10-22T04:26:16.613Z,14.41
2022-10-22T04:27:16.536Z,14.36
2022-10-22T04:28:16.458Z,14.35
2022-10-22T04:29:16.574Z,14.38
2022-10-22T04:30:16.296Z,14.34
2022-10-22T04:31:16.224Z,14.32
2022-10-22T04:32:16.145Z,14.35
2022-10-22T04:33:16.065Z,14.34
2022-10-22T04:34:15.986Z,14.38
2022-10-22T04:35:15.969Z,14.42
2022-10-22T04:36:15.827Z,14.29
2022-10-22T04:37:15.751Z,14.36
2022-10-22T04:38:15.675Z,14.36
2022-10-22T04:39:15.595Z,14.31
2022-10-22T04:40:15.513Z,14.36
2022-10-22T04:41:15.445Z,14.36
2022-10-22T04:42:15.357Z,14.32
2022-10-22T04:43:15.284Z,14.36
2022-10-22T04:44:16.834Z,14.44
2022-10-22T04:45:15.128Z,14.34
2022-10-22T04:46:15.043Z,14.23
2022-10-22T04:47:14.966Z,14.23
2022-10-22T04:48:14.888Z,14.24
2022-10-22T04:49:14.814Z,14.28
2022-10-22T04:50:14.730Z,14.31
2022-10-22T04:51:14.655Z,14.24
2022-10-22T04:52:14.579Z,14.24
2022-10-22T04:53:14.499Z,14.20
2022-10-22T04:54:15.145Z,14.31
2022-10-22T04:55:14.341Z,14.21
2022-10-22T04:56:14.264Z,14.21
2022-10-22T04:57:14.184Z,14.35
2022-10-22T04:58:14.103Z,14.36
2022-10-22T04:59:14.030Z,14.27
2022-10-22T05:00:13.945Z,14.29
2022-10-22T05:01:13.955Z,14.28
2022-10-22T05:02:13.796Z,14.31
2022-10-22T05:03:13.713Z,14.27
2022-10-22T05:04:13.633Z,14.31
2022-10-22T05:05:13.557Z,14.20
2022-10-22T05:07:13.400Z,14.17
2022-10-22T05:08:13.318Z,14.14
2022-10-22T05:09:13.278Z,14.17
2022-10-22T05:10:13.163Z,14.14
2022-10-22T05:11:13.088Z,14.13
2022-10-22T05:12:13.008Z,14.09
2022-10-22T05:13:12.926Z,14.13
2022-10-22T05:14:12.850Z,14.10
2022-10-22T05:15:12.777Z,14.03
2022-10-22T05:16:12.691Z,14.10
2022-10-22T05:17:12.619Z,14.03
2022-10-22T05:18:12.540Z,14.01
2022-10-22T05:19:12.457Z,14.02
2022-10-22T05:20:12.380Z,13.89
2022-10-22T05:21:12.302Z,13.87
2022-10-22T05:22:12.223Z,13.87
2022-10-22T05:23:12.142Z,13.81
2022-10-22T05:24:12.067Z,13.83
2022-10-22T05:25:11.987Z,13.74
2022-10-22T05:26:11.911Z,13.76
2022-10-22T05:27:11.859Z,13.74
2022-10-22T05:28:11.752Z,13.73
2022-10-22T05:29:11.672Z,13.66
2022-10-22T05:30:11.600Z,13.70
2022-10-22T05:31:11.519Z,13.68
2022-10-22T05:32:11.436Z,13.80
2022-10-22T05:33:11.363Z,13.74
2022-10-22T05:34:11.280Z,13.71
2022-10-22T05:35:11.205Z,13.78
2022-10-22T05:36:11.124Z,13.76
2022-10-22T05:37:11.046Z,13.84
2022-10-22T05:38:10.964Z,13.78
2022-10-22T05:39:10.886Z,13.76
2022-10-22T05:40:26.637Z,13.74
2022-10-22T05:41:10.732Z,13.78
2022-10-22T05:42:10.649Z,13.81
2022-10-22T05:43:10.574Z,13.76
2022-10-22T05:44:10.546Z,13.77
2022-10-22T05:45:10.461Z,13.70
2022-10-22T05:46:10.344Z,13.77
2022-10-22T05:47:10.262Z,13.76
2022-10-22T05:48:10.178Z,13.70
2022-10-22T05:49:10.102Z,13.63
2022-10-22T05:50:10.031Z,13.58
2022-10-22T05:51:09.949Z,13.66
2022-10-22T05:52:09.863Z,13.63
2022-10-22T05:53:09.786Z,13.63
2022-10-22T05:54:09.709Z,13.58
2022-10-22T05:55:09.632Z,13.68
2022-10-22T05:56:09.553Z,13.66
2022-10-22T05:57:09.477Z,13.70
2022-10-22T05:58:09.393Z,13.65
2022-10-22T05:59:09.329Z,13.71
2022-10-22T06:00:11.673Z,13.76
2022-10-22T06:01:09.159Z,13.76
2022-10-22T06:02:09.121Z,13.89
2022-10-22T06:03:09.001Z,13.78
2022-10-22T06:04:08.925Z,13.89
2022-10-22T06:05:08.851Z,13.87
2022-10-22T06:06:08.763Z,13.86
2022-10-22T06:07:08.693Z,13.83
2022-10-22T06:08:08.607Z,13.86
2022-10-22T06:09:08.599Z,13.86
2022-10-22T06:10:08.449Z,13.84
2022-10-22T06:11:08.373Z,13.86
2022-10-22T06:12:08.294Z,13.92
2022-10-22T06:13:08.219Z,13.89
2022-10-22T06:14:08.137Z,13.95
2022-10-22T06:15:08.058Z,13.99
2022-10-22T06:16:07.980Z,13.86
2022-10-22T06:17:07.907Z,13.87
2022-10-22T06:18:07.821Z,13.92
2022-10-22T06:19:07.748Z,13.84
2022-10-22T06:20:07.665Z,13.98
2022-10-22T06:21:07.588Z,13.86
2022-10-22T06:22:07.507Z,13.87
2022-10-22T06:23:07.436Z,13.91
2022-10-22T06:24:07.349Z,13.84
2022-10-22T06:25:07.274Z,13.83
2022-10-22T06:26:07.195Z,13.89
2022-10-22T06:27:07.119Z,13.87
2022-10-22T06:28:07.038Z,13.77
2022-10-22T06:29:06.957Z,13.81
2022-10-22T06:30:06.878Z,13.77
2022-10-22T06:31:06.800Z,13.95
2022-10-22T06:32:06.733Z,13.86
2022-10-22T06:33:06.646Z,13.84
2022-10-22T06:34:06.563Z,13.76
2022-10-22T06:35:06.487Z,13.77
2022-10-22T06:36:07.703Z,13.77
2022-10-22T06:37:06.333Z,13.76
2022-10-22T06:38:06.249Z,13.80
2022-10-22T06:39:06.173Z,13.80
2022-10-22T06:40:06.096Z,13.77
2022-10-22T06:41:06.015Z,13.81
2022-10-22T06:42:05.937Z,13.89
2022-10-22T06:43:05.858Z,13.84
2022-10-22T06:44:05.782Z,13.74
2022-10-22T06:45:05.714Z,13.84
2022-10-22T06:46:05.621Z,13.86
2022-10-22T06:47:05.541Z,13.81
2022-10-22T06:48:05.467Z,13.81
2022-10-22T06:49:05.391Z,13.84
2022-10-22T06:50:05.308Z,13.89
2022-10-22T06:51:05.236Z,13.91
2022-10-22T06:52:05.150Z,13.83
2022-10-22T06:53:05.072Z,13.84
2022-10-22T06:54:04.993Z,13.86
2022-10-22T06:55:04.919Z,13.84
2022-10-22T06:56:04.836Z,13.89
2022-10-22T06:57:04.760Z,13.91
2022-10-22T06:58:04.677Z,13.87
2022-10-22T06:59:04.598Z,13.87
2022-10-22T07:00:04.521Z,13.95
2022-10-22T07:01:04.498Z,13.98
2022-10-22T07:02:04.367Z,13.96
2022-10-22T07:03:04.289Z,13.92
2022-10-22T07:04:04.216Z,13.95
2022-10-22T07:05:04.138Z,13.98
2022-10-22T07:06:04.056Z,14.03
2022-10-22T07:07:03.979Z,14.01
2022-10-22T07:08:03.891Z,13.98
2022-10-22T07:09:03.955Z,14.05
2022-10-22T07:10:03.738Z,13.98
2022-10-22T07:11:03.655Z,14.10
2022-10-22T07:12:03.577Z,14.09
2022-10-22T07:13:03.498Z,14.09
2022-10-22T07:14:03.429Z,14.07
2022-10-22T07:15:03.344Z,14.13
2022-10-22T07:16:03.267Z,14.13
2022-10-22T07:17:03.184Z,14.03
2022-10-22T07:18:03.112Z,14.11
2022-10-22T07:19:03.033Z,14.09
2022-10-22T07:20:02.953Z,14.09
2022-10-22T07:21:02.872Z,14.10
2022-10-22T07:22:02.794Z,14.14
2022-10-22T07:23:02.714Z,14.14
2022-10-22T07:24:02.642Z,14.17
2022-10-22T07:25:06.547Z,14.09
2022-10-22T07:26:02.707Z,14.20
2022-10-22T07:27:02.414Z,14.17
2022-10-22T07:28:02.323Z,14.20
2022-10-22T07:29:02.243Z,14.21
2022-10-22T07:30:02.165Z,14.27
2022-10-22T07:31:02.086Z,14.16
2022-10-22T07:32:02.008Z,14.11
2022-10-22T07:33:01.934Z,14.16
2022-10-22T07:34:01.872Z,14.29
2022-10-22T07:35:01.774Z,14.31
2022-10-22T07:36:01.692Z,14.23
2022-10-22T07:37:01.614Z,14.29
2022-10-22T07:38:01.552Z,14.38
2022-10-22T07:39:01.456Z,14.36
2022-10-22T07:40:03.808Z,14.39
2022-10-22T07:41:01.301Z,14.35
2022-10-22T07:42:01.224Z,14.39
2022-10-22T07:43:01.147Z,14.47
2022-10-22T07:44:01.064Z,14.56
2022-10-22T07:45:00.985Z,14.65
2022-10-22T07:46:00.910Z,14.71
2022-10-22T07:47:00.830Z,14.84
2022-10-22T07:48:00.752Z,14.85
2022-10-22T07:49:00.673Z,14.85
2022-10-22T07:50:00.595Z,14.90
2022-10-22T07:51:00.518Z,15.01
2022-10-22T07:52:00.442Z,14.90
2022-10-22T07:53:00.359Z,14.94
2022-10-22T07:54:00.285Z,14.93
2022-10-22T07:55:00.205Z,14.95
2022-10-22T07:56:00.124Z,14.98
2022-10-22T07:57:00.054Z,15.01
2022-10-22T07:57:59.970Z,15.06
2022-10-22T07:58:59.892Z,15.10
2022-10-22T07:59:59.812Z,15.02
2022-10-22T08:00:59.786Z,15.01
2022-10-22T08:01:59.659Z,15.08
2022-10-22T08:02:59.580Z,14.97
2022-10-22T08:03:59.498Z,14.97
2022-10-22T08:04:59.419Z,14.97
2022-10-22T08:05:59.349Z,14.94
2022-10-22T08:06:59.266Z,14.98
2022-10-22T08:07:59.192Z,15.05
2022-10-22T08:08:59.182Z,15.02
2022-10-22T08:09:59.040Z,15.08
2022-10-22T08:10:58.953Z,15.12
2022-10-22T08:11:58.879Z,15.12
2022-10-22T08:12:58.795Z,15.20
2022-10-22T08:13:58.718Z,15.16
2022-10-22T08:14:58.637Z,15.23
2022-10-22T08:15:58.567Z,15.28
2022-10-22T08:16:58.488Z,15.38
2022-10-22T08:17:58.404Z,15.41
2022-10-22T08:18:58.330Z,15.52
2022-10-22T08:19:58.253Z,15.48
2022-10-22T08:20:58.175Z,15.57
2022-10-22T08:21:58.096Z,15.59
2022-10-22T08:22:58.016Z,15.61
2022-10-22T08:23:58.005Z,15.53
2022-10-22T08:24:57.859Z,15.61
2022-10-22T08:25:57.782Z,15.61
2022-10-22T08:26:57.708Z,15.64
2022-10-22T08:27:57.626Z,15.64
2022-10-22T08:28:57.553Z,15.64
2022-10-22T08:29:57.471Z,15.63
2022-10-22T08:30:57.390Z,15.63
2022-10-22T08:31:57.316Z,15.63
2022-10-22T08:32:57.234Z,15.63
2022-10-22T08:33:57.162Z,15.63
2022-10-22T08:34:57.085Z,15.61
2022-10-22T08:35:57.012Z,15.61
2022-10-22T08:36:56.924Z,15.61
2022-10-22T08:37:56.849Z,15.61
2022-10-22T08:38:56.769Z,15.61
2022-10-22T08:39:56.690Z,15.55
2022-10-22T08:40:56.613Z,15.59
2022-10-22T08:41:56.534Z,15.60
2022-10-22T08:42:56.455Z,15.55
2022-10-22T08:43:56.379Z,15.59
2022-10-22T08:44:56.304Z,15.61
2022-10-22T08:45:56.228Z,15.57
2022-10-22T08:46:56.146Z,15.46
2022-10-22T08:47:56.069Z,15.55
2022-10-22T08:48:56.035Z,15.51
2022-10-22T08:49:55.911Z,15.48
2022-10-22T08:50:55.838Z,15.57
2022-10-22T08:51:55.759Z,15.63
2022-10-22T08:52:55.682Z,15.57
2022-10-22T08:53:55.604Z,15.57
2022-10-22T08:54:55.526Z,15.60
2022-10-22T08:55:55.458Z,15.63
2022-10-22T08:56:55.366Z,15.64
2022-10-22T08:57:55.293Z,15.59
2022-10-22T08:58:55.209Z,15.64
2022-10-22T08:59:55.136Z,15.60
2022-10-22T09:00:55.060Z,15.63
2022-10-22T09:01:54.982Z,15.63
2022-10-22T09:02:54.899Z,15.73
2022-10-22T09:03:54.823Z,15.85
2022-10-22T09:04:54.747Z,15.76
2022-10-22T09:05:54.671Z,15.94
2022-10-22T09:06:54.601Z,16.14
2022-10-22T09:07:54.517Z,16.20
2022-10-22T09:08:54.488Z,16.20
2022-10-22T09:09:54.356Z,16.33
2022-10-22T09:10:54.288Z,16.35
2022-10-22T09:11:54.205Z,16.41
2022-10-22T09:12:54.122Z,16.59
2022-10-22T09:13:54.050Z,16.71
2022-10-22T09:14:53.968Z,16.84
2022-10-22T09:15:53.896Z,16.93
2022-10-22T09:16:53.812Z,16.96
2022-10-22T09:17:53.739Z,17.03
2022-10-22T09:18:53.658Z,17.23
2022-10-22T09:19:53.581Z,17.26
2022-10-22T09:20:53.505Z,17.38
2022-10-22T09:21:53.428Z,17.54
2022-10-22T09:22:53.353Z,17.66
2022-10-22T09:23:53.273Z,17.87
2022-10-22T09:24:53.193Z,18.07
2022-10-22T09:25:53.118Z,18.10
2022-10-22T09:26:53.040Z,18.21
2022-10-22T09:27:52.968Z,18.25
2022-10-22T09:28:52.893Z,18.40
2022-10-22T09:29:52.814Z,18.49
2022-10-22T09:30:52.762Z,18.67
2022-10-22T09:31:52.659Z,18.82
2022-10-22T09:32:52.583Z,18.89
2022-10-22T09:33:52.502Z,18.95
2022-10-22T09:34:52.426Z,19.08
2022-10-22T09:35:52.353Z,19.18
2022-10-22T09:36:52.277Z,19.36
2022-10-22T09:37:52.203Z,19.38
2022-10-22T09:38:52.122Z,19.54
2022-10-22T09:39:52.042Z,19.58
2022-10-22T09:40:51.981Z,19.60
2022-10-22T09:41:51.894Z,19.65
2022-10-22T09:42:51.815Z,19.79
2022-10-22T09:43:51.740Z,19.90
2022-10-22T09:44:51.664Z,19.95
2022-10-22T09:45:51.589Z,20.03
2022-10-22T09:46:51.509Z,20.10
2022-10-22T09:48:01.802Z,20.23
2022-10-22T09:48:51.364Z,20.31
2022-10-22T09:49:51.285Z,20.47
2022-10-22T09:50:51.210Z,20.49
2022-10-22T09:51:51.133Z,20.50
2022-10-22T09:52:51.056Z,20.54
2022-10-22T09:53:50.988Z,20.50
2022-10-22T09:54:50.907Z,20.46
2022-10-22T09:55:50.861Z,20.42
2022-10-22T09:56:50.754Z,20.30
2022-10-22T09:57:50.864Z,20.34
2022-10-22T09:58:50.606Z,20.18
2022-10-22T09:59:50.528Z,20.20
2022-10-22T10:00:50.459Z,20.24
2022-10-22T10:01:50.376Z,20.10
2022-10-22T10:02:50.339Z,20.10
2022-10-22T10:03:50.228Z,20.01
2022-10-22T10:04:50.157Z,20.12
2022-10-22T10:05:50.078Z,20.12
2022-10-22T10:06:50.002Z,20.15
2022-10-22T10:07:49.929Z,20.18
2022-10-22T10:08:49.941Z,20.15
2022-10-22T10:09:49.780Z,20.09
2022-10-22T10:10:49.699Z,20.01
2022-10-22T10:11:49.623Z,19.93
2022-10-22T10:12:49.553Z,19.76
2022-10-22T10:13:49.480Z,19.75
2022-10-22T10:14:49.396Z,19.68
2022-10-22T10:15:49.325Z,19.65
2022-10-22T10:16:49.250Z,19.48
2022-10-22T10:17:49.180Z,19.48
2022-10-22T10:18:49.100Z,19.51
2022-10-22T10:19:49.024Z,19.38
2022-10-22T10:20:48.945Z,19.33
2022-10-22T10:21:48.868Z,19.32
2022-10-22T10:22:48.792Z,19.36
2022-10-22T10:23:48.724Z,19.27
2022-10-22T10:24:48.646Z,19.28
2022-10-22T10:25:48.572Z,19.20
2022-10-22T10:26:48.491Z,19.21
2022-10-22T10:27:48.417Z,19.21
2022-10-22T10:28:48.344Z,19.09
2022-10-22T10:29:48.266Z,19.08
2022-10-22T10:30:48.192Z,19.05
2022-10-22T10:31:48.121Z,19.06
2022-10-22T10:32:48.038Z,19.02
2022-10-22T10:33:47.968Z,19.05
2022-10-22T10:34:47.889Z,19.09
2022-10-22T10:35:47.816Z,19.17
2022-10-22T10:36:47.751Z,19.27
2022-10-22T10:37:47.722Z,19.25
2022-10-22T10:38:47.586Z,19.39
2022-10-22T10:39:47.510Z,19.48
2022-10-22T10:40:47.433Z,19.64
2022-10-22T10:41:47.359Z,19.71
2022-10-22T10:42:47.283Z,19.90
2022-10-22T10:43:47.211Z,19.87
2022-10-22T10:44:47.132Z,20.00
2022-10-22T10:45:47.058Z,19.98
2022-10-22T10:46:46.981Z,19.90
2022-10-22T10:47:46.910Z,19.94
2022-10-22T10:48:46.833Z,20.03
2022-10-22T10:49:46.760Z,20.06
2022-10-22T10:50:46.685Z,20.05
2022-10-22T10:51:46.604Z,20.15
2022-10-22T10:52:46.538Z,20.10
2022-10-22T10:53:46.460Z,20.12
2022-10-22T10:54:46.387Z,20.06
2022-10-22T10:55:46.306Z,20.10
2022-10-22T10:56:46.236Z,20.06
2022-10-22T10:57:46.157Z,20.09
2022-10-22T10:58:46.085Z,20.08
2022-10-22T10:59:46.003Z,20.08
2022-10-22T11:00:45.930Z,20.00
2022-10-22T11:01:45.883Z,19.79
2022-10-22T11:02:45.819Z,19.76
2022-10-22T11:03:45.702Z,19.61
2022-10-22T11:04:45.633Z,19.53
2022-10-22T11:05:45.554Z,19.54
2022-10-22T11:06:45.484Z,19.51
2022-10-22T11:07:45.458Z,19.51
2022-10-22T11:08:45.507Z,19.54
2022-10-22T11:09:45.267Z,19.48
2022-10-22T11:10:45.189Z,19.45
2022-10-22T11:11:45.108Z,19.46
2022-10-22T11:12:45.115Z,19.36
2022-10-22T11:13:44.956Z,19.35
2022-10-22T11:14:44.881Z,19.40
2022-10-22T11:15:44.804Z,19.45
2022-10-22T11:16:44.732Z,19.45
2022-10-22T11:17:44.653Z,19.50
2022-10-22T11:18:44.577Z,19.57
2022-10-22T11:19:53.771Z,19.76
2022-10-22T11:20:44.431Z,19.87
2022-10-22T11:21:44.355Z,20.03
2022-10-22T11:23:00.462Z,20.03
2022-10-22T11:23:44.203Z,20.06
2022-10-22T11:24:44.131Z,20.00
2022-10-22T11:25:44.052Z,20.08
2022-10-22T11:26:43.983Z,20.08
2022-10-22T11:27:44.293Z,20.28
2022-10-22T11:28:43.827Z,20.40
2022-10-22T11:29:43.753Z,20.47
2022-10-22T11:30:43.681Z,20.53
2022-10-22T11:31:43.611Z,20.64
2022-10-22T11:32:43.793Z,20.75
2022-10-22T11:33:43.452Z,20.91
2022-10-22T11:34:43.382Z,20.98
2022-10-22T11:35:43.304Z,21.09
2022-10-22T11:36:43.229Z,21.16
2022-10-22T11:37:43.451Z,21.30
2022-10-22T11:38:43.083Z,21.23
2022-10-22T11:39:43.004Z,21.30
2022-10-22T11:40:42.935Z,21.31
2022-10-22T11:41:42.859Z,21.29
2022-10-22T11:42:42.791Z,21.44
2022-10-22T11:43:42.706Z,21.59
2022-10-22T11:44:42.687Z,21.57
2022-10-22T11:45:42.559Z,21.53
2022-10-22T11:46:42.483Z,21.67
2022-10-22T11:47:42.799Z,21.63
2022-10-22T11:48:42.339Z,21.56
2022-10-22T11:49:42.265Z,21.66
2022-10-22T11:50:42.188Z,21.66
2022-10-22T11:51:42.110Z,21.69
2022-10-22T11:52:42.038Z,21.59
2022-10-22T11:53:41.962Z,21.60
2022-10-22T11:54:41.894Z,21.67
2022-10-22T11:55:41.816Z,21.74
2022-10-22T11:56:41.743Z,21.78
2022-10-22T11:57:41.851Z,21.78
2022-10-22T11:58:41.593Z,21.82
2022-10-22T11:59:41.517Z,21.78
2022-10-22T12:00:41.450Z,21.81
2022-10-22T12:01:41.372Z,21.72
2022-10-22T12:02:41.550Z,21.63
2022-10-22T12:03:41.226Z,21.69
2022-10-22T12:04:41.206Z,21.61
2022-10-22T12:05:41.079Z,21.49
2022-10-22T12:06:41.004Z,21.51
2022-10-22T12:07:40.927Z,21.46
2022-10-22T12:08:40.868Z,21.35
2022-10-22T12:09:40.822Z,21.27
2022-10-22T12:10:40.706Z,21.35
2022-10-22T12:11:40.631Z,21.04
2022-10-22T12:12:40.833Z,20.71
2022-10-22T12:13:40.486Z,20.66
2022-10-22T12:14:40.412Z,20.54
2022-10-22T12:15:40.334Z,20.54
2022-10-22T12:16:56.838Z,20.64
2022-10-22T12:17:40.183Z,20.50
2022-10-22T12:18:40.113Z,20.51
2022-10-22T12:19:40.037Z,20.54
2022-10-22T12:20:39.965Z,20.50
2022-10-22T12:21:39.891Z,20.47
2022-10-22T12:22:40.185Z,20.47
2022-10-22T12:23:39.750Z,20.50
2022-10-22T12:24:39.665Z,20.38
2022-10-22T12:25:39.594Z,20.40
2022-10-22T12:26:39.517Z,20.42
2022-10-22T12:27:39.801Z,20.43
2022-10-22T12:28:39.372Z,20.56
2022-10-22T12:29:39.293Z,20.50
2022-10-22T12:30:39.221Z,20.54
2022-10-22T12:31:39.159Z,20.56
2022-10-22T12:32:39.097Z,20.50
2022-10-22T12:33:38.994Z,20.56
2022-10-22T12:34:38.965Z,20.53
2022-10-22T12:35:38.842Z,20.65
2022-10-22T12:36:38.770Z,20.71
2022-10-22T12:37:38.839Z,20.89
2022-10-22T12:38:38.628Z,20.93
2022-10-22T12:39:38.550Z,20.99
2022-10-22T12:40:38.479Z,21.06
2022-10-22T12:41:38.400Z,20.99
2022-10-22T12:42:38.341Z,20.98
2022-10-22T12:43:38.253Z,20.89
2022-10-22T12:44:38.182Z,20.84
2022-10-22T12:45:38.099Z,20.74
2022-10-22T12:46:38.032Z,20.76
2022-10-22T12:47:38.052Z,20.87
2022-10-22T12:48:37.880Z,20.90
2022-10-22T12:49:37.804Z,21.01
2022-10-22T12:50:37.736Z,21.09
2022-10-22T12:51:37.655Z,21.09
2022-10-22T12:52:37.592Z,21.09